Time;durP1;ratioP1;P1;durP2;ratioP2;P2;SDS_P1;SDS_P2;PMS_P1;PMS_P2;Temp;Humidity;BMP_temperature;BMP_pressure;BME280_temperature;BME280_humidity;BME280_pressure;Samples;Min_cycle;Max_cycle;Signal;HPM_P1;HPM_P2
2023/04/25 00:15:21;;;;;;;;;;;;;;;;;;;;;
2023/04/25 00:18:10;;;;;;;7.10;4.82;;;6.40;1.00;;;;;;4976492;28;20059;-91
2023/04/25 00:30:14;;;;;;;10.75;4.80;;;6.30;99.90;;;;;;4975053;28;20090;-93
2023/04/25 00:37:43;;;;;;;7.88;4.88;;;6.40;99.90;;;;;;4939606;28;20043;-91
2023/04/25 00:40:37;;;;;;;6.87;4.13;;;6.50;99.90;;;;;;4985840;28;20142;-92
2023/04/25 00:48:13;;;;;;;6.07;4.60;;;6.60;99.90;;;;;;4926183;29;20040;-90
2023/04/25 00:59:31;;;;;;;8.07;4.85;;;6.60;99.90;;;;;;4955834;29;20134;-90
2023/04/25 01:02:42;;;;;;;7.75;5.30;;;6.60;99.90;;;;;;4943056;29;20048;-93
2023/04/25 01:05:35;;;;;;;8.30;5.80;;;6.60;99.90;;;;;;4954613;29;20050;-90
2023/04/25 01:13:23;;;;;;;5.55;5.05;;;6.60;99.90;;;;;;4850900;29;20046;-91
2023/04/25 01:20:23;;;;;;;7.65;4.80;;;6.50;99.90;;;;;;4941264;29;20075;-92
2023/04/25 01:24:10;;;;;;;;;;;;;;;;;;;;;
2023/04/25 01:27:12;;;;;;;8.30;4.93;;;6.50;1.00;;;;;;4953362;28;20043;-91
2023/04/25 01:30:37;;;;;;;10.35;5.03;;;6.50;1.00;;;;;;4872088;29;20132;-92
2023/04/25 01:33:33;;;;;;;6.22;4.88;;;6.50;1.00;;;;;;4864097;29;20064;-92
2023/04/25 01:37:25;;;;;;;6.90;3.80;;;6.50;99.90;;;;;;4852938;29;20042;-90
2023/04/25 01:40:40;;;;;;;9.48;4.32;;;6.40;99.90;;;;;;4851609;29;20135;-92
2023/04/25 01:46:30;;;;;;;7.07;4.03;;;6.40;99.90;;;;;;5127539;22;20131;-90
2023/04/25 01:58:09;;;;;;;10.23;4.70;;;6.50;32.70;;;;;;4901698;29;20076;-94
2023/04/25 02:06:05;;;;;;;6.93;4.90;;;6.50;99.90;;;;;;4893635;29;20081;-95
2023/04/25 02:09:23;;;;;;;11.02;5.95;;;6.40;99.90;;;;;;4830867;29;20492;-95
2023/04/25 02:16:40;;;;;;;;;;;;;;;;;;;;;
2023/04/25 02:28:51;;;;;;;;;;;;;;;;;;;;;
2023/04/25 02:57:02;;;;;;;6.55;4.47;;;6.10;49.30;;;;;;4984780;28;20101;-91
2023/04/25 03:00:38;;;;;;;8.77;4.75;;;6.10;23.10;;;;;;5046858;28;20056;-90
2023/04/25 03:24:07;;;;;;;8.13;4.28;;;6.20;1.00;;;;;;4967774;28;20131;-91
2023/04/25 03:28:13;;;;;;;;;;;;;;;;;;;;;
2023/04/25 03:31:15;;;;;;;6.75;4.05;;;6.20;99.90;;;;;;4957581;28;20501;-91
2023/04/25 03:47:38;;;;;;;10.02;4.55;;;6.00;99.90;;;;;;4845122;29;20038;-91
2023/04/25 03:58:57;;;;;;;10.52;5.10;;;5.90;99.90;;;;;;4827620;29;20147;-92
2023/04/25 04:07:12;;;;;;;11.05;4.93;;;5.70;1.00;;;;;;4827584;29;20030;-91
2023/04/25 04:10:37;;;;;;;8.68;5.28;;;5.60;1.00;;;;;;4853721;29;20090;-93
2023/04/25 04:18:17;;;;;;;11.80;5.45;;;5.70;99.90;;;;;;4981886;28;20035;-90
2023/04/25 04:26:23;;;;;;;12.20;6.20;;;5.50;1.00;;;;;;4939001;28;20027;-91
2023/04/25 04:30:41;;;;;;;;;;;;;;;;;;;;;
2023/04/25 04:33:26;;;;;;;10.68;5.75;;;5.30;99.90;;;;;;4920317;29;20139;-90
2023/04/25 04:36:31;;;;;;;12.40;6.93;;;5.20;1.00;;;;;;4923894;29;20076;-91
2023/04/25 04:39:33;;;;;;;16.75;7.30;;;5.10;5.70;;;;;;4929842;29;20063;-90
2023/04/25 04:42:28;;;;;;;15.80;8.00;;;5.20;99.90;;;;;;4920853;29;20063;-91
2023/04/25 04:45:25;;;;;;;12.00;8.15;;;5.30;1.00;;;;;;4921058;29;20496;-90
2023/04/25 04:48:13;;;;;;;13.00;7.22;;;5.40;99.90;;;;;;4921609;29;20130;-90
2023/04/25 04:51:04;;;;;;;10.20;7.28;;;5.50;99.90;;;;;;4914570;29;20071;-91
2023/04/25 04:54:02;;;;;;;;;;;;;;;;;;;;;
2023/04/25 04:56:58;;;;;;;8.52;6.25;;;5.60;99.90;;;;;;4924408;29;20056;-92
2023/04/25 04:59:50;;;;;;;10.35;7.13;;;5.70;99.90;;;;;;4946558;28;20043;-85
2023/04/25 05:02:38;;;;;;;13.18;6.53;;;5.80;99.90;;;;;;4974013;28;20073;-90
2023/04/25 05:05:26;;;;;;;15.82;6.43;;;5.90;1.00;;;;;;4976047;28;20074;-91
2023/04/25 05:08:13;;;;;;;16.25;6.90;;;6.00;1.00;;;;;;5042995;28;20054;-91
2023/04/25 05:11:01;;;;;;;9.30;6.80;;;6.00;99.90;;;;;;5060401;28;20045;-91
2023/04/25 05:13:49;;;;;;;8.88;6.20;;;6.00;99.90;;;;;;5061695;28;20029;-88
2023/04/25 05:16:42;;;;;;;13.25;7.70;;;6.00;1.00;;;;;;5075923;28;20021;-90
2023/04/25 05:19:30;;;;;;;15.25;6.63;;;6.00;1.00;;;;;;5048149;28;20026;-89
2023/04/25 05:22:22;;;;;;;17.27;7.68;;;5.90;93.90;;;;;;5069378;28;20033;-92
2023/04/25 05:28:50;;;;;;;15.63;7.05;;;5.90;1.00;;;;;;5067019;28;20048;-90
2023/04/25 05:32:03;;;;;;;11.13;7.03;;;5.90;99.90;;;;;;5049705;28;20372;-85
2023/04/25 05:34:56;;;;;;;12.15;7.13;;;5.90;99.90;;;;;;5058814;28;20056;-91
2023/04/25 05:37:44;;;;;;;12.70;7.22;;;6.00;1.00;;;;;;5047109;28;20041;-91
2023/04/25 05:40:41;;;;;;;12.60;6.25;;;6.10;2.30;;;;;;5050189;28;20045;-90
2023/04/25 05:47:42;;;;;;;12.43;6.82;;;6.10;1.00;;;;;;5045146;28;20033;-91
2023/04/25 06:07:32;;;;;;;10.27;5.80;;;6.80;1.00;;;;;;4833511;29;20486;-91
2023/04/25 06:10:58;;;;;;;9.38;5.28;;;7.10;99.90;;;;;;4905638;29;20060;-91
2023/04/25 06:14:30;;;;;;;8.48;4.95;;;7.40;56.30;;;;;;4869494;29;20147;-94
2023/04/25 06:29:34;;;;;;;6.75;4.30;;;8.20;27.40;;;;;;4945468;28;20109;-92
2023/04/25 06:32:26;;;;;;;6.22;4.25;;;8.30;99.90;;;;;;4958037;28;20051;-87
2023/04/25 06:35:20;;;;;;;7.80;4.20;;;8.30;99.90;;;;;;4974415;28;20046;-91
2023/04/25 06:38:09;;;;;;;7.72;4.78;;;8.30;99.90;;;;;;5029899;28;20068;-90
2023/04/25 06:40:56;;;;;;;7.00;4.30;;;8.20;99.90;;;;;;5037017;28;20455;-90
2023/04/25 06:43:47;;;;;;;12.65;5.18;;;8.00;99.90;;;;;;5035924;28;20091;-89
2023/04/25 06:46:43;;;;;;;6.22;4.60;;;7.80;99.90;;;;;;5037398;28;20045;-89
2023/04/25 06:49:33;;;;;;;11.40;5.10;;;7.60;99.90;;;;;;5044691;28;20091;-91
2023/04/25 06:52:28;;;;;;;8.55;4.88;;;7.50;99.90;;;;;;5023587;28;20068;-88
2023/04/25 06:55:25;;;;;;;12.30;5.50;;;7.40;99.90;;;;;;5039635;28;20146;-89
2023/04/25 06:59:09;;;;;;;9.68;5.68;;;7.40;1.00;;;;;;5041917;28;20061;-93
2023/04/25 07:06:55;;;;;;;15.35;5.75;;;7.20;99.90;;;;;;4979880;28;20085;-91
2023/04/25 07:10:25;;;;;;;;;;;;;;;;;;;;;
2023/04/25 07:22:52;;;;;;;;;;;;;;;;;;;;;
2023/04/25 07:35:37;;;;;;;11.80;7.22;;;6.60;1.00;;;;;;4996280;28;20058;-92
2023/04/25 07:38:56;;;;;;;13.45;7.35;;;6.50;1.00;;;;;;4872209;29;20101;-91
2023/04/25 07:41:53;;;;;;;10.85;7.70;;;6.60;99.90;;;;;;4882850;29;20041;-92
2023/04/25 07:53:37;;;;;;;13.30;8.07;;;6.80;16.40;;;;;;4908330;29;20484;-93
2023/04/25 07:56:32;;;;;;;16.98;8.63;;;6.80;9.40;;;;;;4905929;29;20076;-89
2023/04/25 07:59:47;;;;;;;14.05;8.10;;;6.70;99.90;;;;;;4932465;29;20106;-88
2023/04/25 08:02:39;;;;;;;11.68;8.88;;;6.70;1.00;;;;;;5017587;28;20179;-88
2023/04/25 08:05:45;;;;;;;13.30;8.23;;;6.70;99.90;;;;;;5039654;28;20112;-90
2023/04/25 08:08:46;;;;;;;13.98;7.30;;;6.60;99.90;;;;;;5030448;28;20062;-91
2023/04/25 08:11:43;;;;;;;14.18;7.82;;;6.50;99.90;;;;;;5040069;28;20460;-89
2023/04/25 08:15:01;;;;;;;16.92;8.32;;;6.50;99.90;;;;;;5048932;28;20064;-91
2023/04/25 08:43:16;;;;;;;;;;;;;;;;;;;;;
2023/04/25 08:46:20;;;;;;;11.85;7.82;;;6.10;99.90;;;;;;4913554;29;20099;-89
2023/04/25 08:49:11;;;;;;;14.02;9.07;;;6.10;99.90;;;;;;4954384;28;20416;-89
2023/04/25 08:52:47;;;;;;;;;;;;;;;;;;;;;
2023/04/25 09:01:05;;;;;;;12.20;8.27;;;5.80;99.90;;;;;;5066850;28;20045;-93
2023/04/25 09:04:07;;;;;;;;;;;;;;;;;;;;;
2023/04/25 09:07:49;;;;;;;;;;;;;;;;;;;;;
2023/04/25 09:11:24;;;;;;;;;;;;;;;;;;;;;
2023/04/25 09:18:37;;;;;;;10.35;8.52;;;5.60;99.90;;;;;;5053214;28;20029;-90
2023/04/25 09:21:30;;;;;;;12.93;9.02;;;5.60;99.90;;;;;;5045695;28;20037;-86
2023/04/25 09:24:45;;;;;;;8.13;6.82;;;5.60;99.90;;;;;;5036604;28;20071;-89
2023/04/25 09:32:25;;;;;;;;;;;;;;;;;;;;;
2023/04/25 09:35:43;;;;;;;4.93;4.43;;;5.30;99.90;;;;;;5053166;28;20040;-92
2023/04/25 09:38:33;;;;;;;8.18;6.15;;;5.30;99.90;;;;;;5017590;28;20049;-88
2023/04/25 09:41:25;;;;;;;9.88;5.57;;;5.20;99.90;;;;;;5036570;28;20064;-88
2023/04/25 09:44:22;;;;;;;6.47;5.38;;;5.20;99.90;;;;;;5031293;28;20044;-89
2023/04/25 09:47:18;;;;;;;4.78;3.75;;;5.10;99.90;;;;;;5052613;28;20059;-88
2023/04/25 09:50:17;;;;;;;6.35;3.63;;;5.10;99.90;;;;;;5042591;28;20045;-89
2023/04/25 09:53:07;;;;;;;4.65;3.05;;;5.00;99.90;;;;;;5043406;28;20072;-90
2023/04/25 09:56:00;;;;;;;3.60;3.03;;;5.00;99.90;;;;;;5040433;28;20520;-91
2023/04/25 09:58:50;;;;;;;4.57;2.97;;;5.00;99.90;;;;;;5058658;28;20102;-90
2023/04/25 10:01:41;;;;;;;2.13;2.00;;;5.00;99.90;;;;;;5022818;28;20037;-91
2023/04/25 10:04:33;;;;;;;2.78;2.50;;;5.00;99.90;;;;;;5028355;28;20045;-88
2023/04/25 10:07:26;;;;;;;3.15;2.42;;;5.00;99.90;;;;;;5037196;28;20048;-90
2023/04/25 10:10:14;;;;;;;2.53;2.33;;;5.00;99.90;;;;;;5045616;28;20048;-86
2023/04/25 10:13:06;;;;;;;2.28;2.08;;;5.10;99.90;;;;;;5036151;28;20049;-88
2023/04/25 10:15:54;;;;;;;2.20;2.00;;;5.00;99.90;;;;;;5044228;28;20041;-87
2023/04/25 10:18:42;;;;;;;4.60;2.50;;;4.90;99.90;;;;;;5030979;28;20140;-88
2023/04/25 10:24:47;;;;;;;3.10;2.42;;;5.00;99.90;;;;;;4959668;28;20059;-93
2023/04/25 10:27:55;;;;;;;3.05;1.60;;;5.00;99.90;;;;;;4961197;28;20061;-88
2023/04/25 10:31:26;;;;;;;2.20;1.88;;;5.00;99.90;;;;;;5059457;28;20037;-92
2023/04/25 10:38:22;;;;;;;1.85;1.73;;;5.10;99.90;;;;;;5052942;28;20036;-93
2023/04/25 10:41:45;;;;;;;2.78;1.45;;;5.10;99.90;;;;;;5039309;28;20059;-91
2023/04/25 10:45:21;;;;;;;1.92;1.60;;;5.00;99.90;;;;;;5030475;28;20063;-92
2023/04/25 10:48:30;;;;;;;2.28;1.85;;;5.20;99.90;;;;;;5049147;28;20391;-91
2023/04/25 10:51:23;;;;;;;2.33;1.83;;;5.50;99.90;;;;;;5054252;28;20136;-91
2023/04/25 10:54:31;;;;;;;1.40;1.05;;;5.60;99.90;;;;;;5052691;28;20052;-92
2023/04/25 10:57:47;;;;;;;1.20;1.10;;;5.70;99.90;;;;;;5039384;28;20056;-90
2023/04/25 11:00:40;;;;;;;1.38;1.27;;;5.60;99.90;;;;;;5045269;28;20041;-89
2023/04/25 11:03:53;;;;;;;1.60;1.50;;;5.80;99.90;;;;;;5035788;28;20038;-88
2023/04/25 11:07:15;;;;;;;2.38;1.90;;;6.10;99.90;;;;;;5044001;28;20110;-90
2023/04/25 11:10:07;;;;;;;1.60;1.45;;;6.20;99.90;;;;;;5035057;28;20037;-92
2023/04/25 11:13:34;;;;;;;1.65;1.25;;;6.20;99.90;;;;;;5065890;28;20387;-90
2023/04/25 11:16:30;;;;;;;1.40;1.30;;;6.20;99.90;;;;;;5041501;28;20127;-90
2023/04/25 11:19:24;;;;;;;1.58;1.48;;;6.20;99.90;;;;;;5036379;28;20090;-93
2023/04/25 11:22:15;;;;;;;1.20;1.10;;;6.40;99.90;;;;;;5034132;28;20087;-93
2023/04/25 11:26:16;;;;;;;;;;;;;;;;;;;;;
2023/04/25 11:29:30;;;;;;;1.77;1.10;;;6.20;99.90;;;;;;5027200;28;20051;-88
2023/04/25 11:32:20;;;;;;;1.58;1.40;;;6.20;99.90;;;;;;5058292;28;20052;-92
2023/04/25 11:35:11;;;;;;;1.50;1.40;;;6.40;99.90;;;;;;5033340;28;20045;-91
2023/04/25 11:37:59;;;;;;;1.30;1.20;;;6.40;99.90;;;;;;5055215;28;20120;-89
2023/04/25 11:40:53;;;;;;;1.20;1.10;;;6.40;99.90;;;;;;5042131;28;20048;-91
2023/04/25 11:43:58;;;;;;;;;;;;;;;;;;;;;
2023/04/25 12:25:35;;;;;;;;;;;;;;;;;;;;;
2023/04/25 12:29:18;;;;;;;4.80;3.88;;;7.70;99.90;;;;;;4956541;28;20178;-89
2023/04/25 13:30:52;;;;;;;;;;;;;;;;;;;;;
2023/04/25 13:37:59;;;;;;;8.15;5.15;;;12.50;98.50;;;;;;4833321;29;20034;-91
2023/04/25 14:27:01;;;;;;;6.90;5.40;;;13.00;99.90;;;;;;4969459;28;20027;-88
2023/04/25 14:29:52;;;;;;;7.38;5.40;;;13.10;99.90;;;;;;5026463;28;20060;-89
2023/04/25 14:32:43;;;;;;;8.73;5.35;;;13.00;99.90;;;;;;5037002;28;20119;-90
2023/04/25 14:35:50;;;;;;;6.78;5.13;;;12.90;99.90;;;;;;5036509;28;20036;-89
2023/04/25 14:43:16;;;;;;;7.25;5.55;;;12.20;99.90;;;;;;5045455;28;20053;-89
2023/04/25 14:46:30;;;;;;;6.20;4.80;;;12.10;99.90;;;;;;4964431;28;20042;-91
2023/04/25 14:50:39;;;;;;;;;;;;;;;;;;;;;
2023/04/25 14:53:57;;;;;;;6.32;5.18;;;11.90;99.90;;;;;;4919275;29;20132;-90
2023/04/25 15:01:12;;;;;;;4.05;3.42;;;13.20;99.90;;;;;;4901672;28;20123;-90
2023/04/25 15:04:08;;;;;;;4.10;2.83;;;13.90;99.90;;;;;;5004561;28;20106;-90
2023/04/25 15:06:56;;;;;;;3.30;2.95;;;15.00;99.90;;;;;;4987475;28;20129;-91
2023/04/25 15:10:37;;;;;;;3.45;2.65;;;16.00;99.90;;;;;;4978045;28;20121;-90
2023/04/25 15:13:45;;;;;;;;;;;16.80;99.90;;;;;;4987504;28;20102;-90
2023/04/25 15:21:06;;;;;;;3.70;2.20;;;16.00;99.90;;;;;;4938845;28;20038;-88
2023/04/25 15:23:55;;;;;;;2.65;2.42;;;16.60;99.90;;;;;;4988098;28;20046;-87
2023/04/25 15:26:42;;;;;;;2.92;2.35;;;16.40;99.90;;;;;;4980514;28;20054;-89
2023/04/25 15:46:46;;;;;;;1.60;1.50;;;15.70;91.90;;;;;;5057628;28;20036;-89
2023/04/25 15:53:41;;;;;;;1.70;1.60;;;14.80;91.60;;;;;;5058882;28;20124;-90
2023/04/25 15:56:35;;;;;;;2.40;1.58;;;14.00;91.00;;;;;;5041746;28;20046;-89
2023/04/25 16:00:11;;;;;;;2.28;1.92;;;13.80;92.20;;;;;;5049301;28;20041;-87
2023/04/25 16:03:10;;;;;;;;;;;;;;;;;;;;;
2023/04/25 16:06:07;;;;;;;4.40;1.98;;;12.30;95.90;;;;;;5063057;28;20041;-91
2023/04/25 16:08:55;;;;;;;2.90;2.60;;;11.90;99.90;;;;;;5068188;28;20108;-91
2023/04/25 16:11:53;;;;;;;4.97;2.63;;;11.50;99.90;;;;;;5057336;28;20049;-92
2023/04/25 16:14:44;;;;;;;2.88;2.40;;;11.30;99.90;;;;;;5063164;28;20205;-92
2023/04/25 16:17:39;;;;;;;3.70;2.67;;;11.10;99.90;;;;;;5051652;28;20072;-90
2023/04/25 16:20:35;;;;;;;3.97;3.00;;;10.90;99.90;;;;;;5037183;28;20104;-91
2023/04/25 16:23:30;;;;;;;3.95;2.95;;;10.70;99.90;;;;;;5057484;28;20045;-92
2023/04/25 16:26:21;;;;;;;7.88;3.72;;;10.50;99.90;;;;;;5052558;28;20063;-92
2023/04/25 16:29:17;;;;;;;4.75;3.00;;;10.30;99.90;;;;;;5062294;28;20056;-92
2023/04/25 16:32:09;;;;;;;6.15;3.30;;;10.10;99.90;;;;;;5046382;28;20045;-91
2023/04/25 16:35:14;;;;;;;5.57;3.75;;;10.10;99.90;;;;;;5045943;28;20037;-92
2023/04/25 16:38:45;;;;;;;5.75;3.80;;;10.00;99.90;;;;;;5042179;28;20087;-93
2023/04/25 16:42:09;;;;;;;6.88;4.03;;;10.00;99.90;;;;;;5046306;28;20123;-93
2023/04/25 16:45:21;;;;;;;4.80;3.72;;;10.10;99.90;;;;;;5001560;28;20061;-91
2023/04/25 16:49:38;;;;;;;;;;;;;;;;;;;;;
2023/04/25 16:53:22;;;;;;;;;;;;;;;;;;;;;
2023/04/25 16:57:21;;;;;;;6.72;4.50;;;9.60;99.90;;;;;;4957841;29;20047;-92
2023/04/25 17:01:00;;;;;;;;;;;;;;;;;;;;;
2023/04/25 17:04:58;;;;;;;5.90;3.97;;;9.20;99.90;;;;;;4901556;29;20048;-93
2023/04/25 17:08:14;;;;;;;8.15;5.35;;;9.10;99.90;;;;;;4897828;29;20092;-93
2023/04/25 17:11:39;;;;;;;;;;;9.00;99.90;;;;;;4895122;29;20193;-92
2023/04/25 17:19:01;;;;;;;;;;;;;;;;;;;;;
2023/04/25 17:23:04;;;;;;;;;;;;;;;;;;;;;
2023/04/25 17:30:25;;;;;;;7.78;5.20;;;8.70;99.90;;;;;;4937202;29;20051;-90
2023/04/25 17:33:37;;;;;;;9.88;5.57;;;8.60;99.90;;;;;;4957953;29;20043;-92
2023/04/25 17:37:14;;;;;;;7.93;5.88;;;8.50;1.00;;;;;;4985200;28;20097;-91
2023/04/25 17:40:26;;;;;;;9.32;5.75;;;8.40;1.00;;;;;;4886772;29;20157;-93
2023/04/25 17:43:58;;;;;;;12.07;7.05;;;8.30;1.00;;;;;;4892027;29;20093;-93
2023/04/25 17:47:05;;;;;;;;;;;;;;;;;;;;;
2023/04/25 17:58:43;;;;;;;9.77;5.72;;;8.00;1.00;;;;;;4933909;29;20111;-93
2023/04/25 18:01:47;;;;;;;8.63;6.25;;;7.90;1.00;;;;;;4919924;29;20480;-90
2023/04/25 18:04:48;;;;;;;;;;;;;;;;;;;;;
2023/04/25 18:08:01;;;;;;;12.70;6.40;;;7.70;1.00;;;;;;4927641;29;20032;-91
2023/04/25 18:10:50;;;;;;;9.45;5.95;;;7.60;1.00;;;;;;4924034;29;20056;-89
2023/04/25 18:13:49;;;;;;;10.10;6.20;;;7.40;1.00;;;;;;4919674;29;20118;-89
2023/04/25 18:16:37;;;;;;;11.55;6.43;;;7.30;38.60;;;;;;4939073;28;20046;-89
2023/04/25 18:19:28;;;;;;;10.07;7.05;;;7.10;74.70;;;;;;5000965;28;20046;-91
2023/04/25 18:22:16;;;;;;;10.18;6.57;;;7.00;99.90;;;;;;5009747;28;20050;-89
2023/04/25 18:25:06;;;;;;;9.63;6.65;;;6.90;99.90;;;;;;4992941;28;20042;-88
2023/04/25 18:28:17;;;;;;;11.00;7.15;;;6.80;99.90;;;;;;5008983;28;20046;-89
2023/04/25 18:31:23;;;;;;;10.02;6.57;;;6.70;99.90;;;;;;5010530;28;20039;-90
2023/04/25 18:34:20;;;;;;;11.25;7.28;;;6.70;99.90;;;;;;5048544;28;20033;-86
2023/04/25 18:37:10;;;;;;;14.35;6.63;;;6.60;99.90;;;;;;5075535;28;20037;-90
2023/04/25 18:40:19;;;;;;;12.25;7.60;;;6.50;1.00;;;;;;5087887;28;20041;-92
2023/04/25 18:43:07;;;;;;;11.77;7.65;;;6.40;1.00;;;;;;5088609;28;20055;-90
2023/04/25 18:45:57;;;;;;;9.02;6.15;;;6.40;21.60;;;;;;5075181;28;20040;-91
2023/04/25 18:48:46;;;;;;;9.48;6.32;;;6.30;99.90;;;;;;5057467;28;20119;-89
2023/04/25 18:51:35;;;;;;;7.72;5.68;;;6.20;99.90;;;;;;5067318;28;20048;-90
2023/04/25 18:54:24;;;;;;;8.18;6.32;;;6.10;99.90;;;;;;5061641;28;20071;-91
2023/04/25 18:57:14;;;;;;;11.02;6.05;;;6.10;99.90;;;;;;5046572;28;20056;-91
2023/04/25 19:00:10;;;;;;;7.97;5.97;;;6.00;99.90;;;;;;5043500;28;20044;-93
2023/04/25 19:03:02;;;;;;;7.28;5.65;;;5.90;1.00;;;;;;5033005;28;20060;-90
2023/04/25 19:05:55;;;;;;;10.80;6.68;;;5.90;1.00;;;;;;5051958;28;20064;-90
2023/04/25 19:09:06;;;;;;;8.98;6.65;;;5.90;36.90;;;;;;5047238;28;20060;-91
2023/04/25 19:15:53;;;;;;;8.48;6.50;;;5.90;99.90;;;;;;5008408;28;20104;-91
2023/04/25 19:18:51;;;;;;;10.13;6.97;;;5.90;99.90;;;;;;5046320;28;20037;-91
2023/04/25 19:21:51;;;;;;;11.90;7.00;;;6.00;99.90;;;;;;5055310;28;20055;-90
2023/04/25 19:24:40;;;;;;;11.27;8.25;;;6.00;99.90;;;;;;5066885;28;20067;-86
2023/04/25 19:27:53;;;;;;;12.98;7.78;;;6.00;99.90;;;;;;5078256;28;20088;-87
2023/04/25 19:35:29;;;;;;;14.82;8.07;;;5.90;1.00;;;;;;5039525;28;20036;-87
2023/04/25 19:38:35;;;;;;;;;;;;;;;;;;;;;
2023/04/25 19:42:21;;;;;;;;;;;;;;;;;;;;;
2023/04/25 19:46:17;;;;;;;;;;;;;;;;;;;;;
2023/04/25 19:49:07;;;;;;;9.82;7.35;;;6.00;99.90;;;;;;5032547;28;20099;-90
2023/04/25 19:52:05;;;;;;;13.07;7.78;;;6.00;99.90;;;;;;5045813;28;20037;-90
2023/04/25 19:55:09;;;;;;;10.07;7.30;;;6.00;99.90;;;;;;5051894;28;20455;-92
2023/04/25 19:58:33;;;;;;;;;;;;;;;;;;;;;
2023/04/25 20:02:23;;;;;;;;;;;;;;;;;;;;;
2023/04/25 20:06:01;;;;;;;11.65;8.07;;;6.00;99.90;;;;;;4970391;28;20058;-92
2023/04/25 20:21:08;;;;;;;11.80;8.40;;;6.00;1.00;;;;;;4896147;29;20051;-92
2023/04/25 20:28:47;;;;;;;11.35;7.95;;;6.00;63.60;;;;;;4996565;28;20092;-92
2023/04/25 20:31:58;;;;;;;16.27;10.70;;;6.00;99.90;;;;;;5040649;28;20048;-92
2023/04/25 20:39:11;;;;;;;11.20;6.78;;;6.00;99.90;;;;;;5057482;28;19917;-91
2023/04/25 20:51:21;;;;;;;7.97;5.47;;;5.80;1.00;;;;;;4977581;28;20030;-91
2023/04/25 20:58:42;;;;;;;;;;;;;;;;;;;;;
2023/04/25 21:02:23;;;;;;;11.80;7.57;;;5.60;99.90;;;;;;5043129;28;20037;-90
2023/04/25 21:06:26;;;;;;;10.85;7.70;;;5.60;99.90;;;;;;4964025;28;20088;-90
2023/04/25 21:31:45;;;;;;;13.85;9.85;;;5.50;1.00;;;;;;4937179;29;20051;-87
2023/04/25 21:51:05;;;;;;;14.48;10.63;;;5.40;99.90;;;;;;5054871;28;20045;-90
2023/04/25 21:58:22;;;;;;;17.35;9.65;;;5.50;99.90;;;;;;5035720;28;20029;-90
2023/04/25 22:01:47;;;;;;;14.23;10.15;;;5.50;99.90;;;;;;5003562;28;20042;-89
2023/04/25 22:04:37;;;;;;;18.27;11.00;;;5.50;99.90;;;;;;4997681;28;20120;-88
2023/04/25 22:07:33;;;;;;;19.15;10.25;;;5.60;99.90;;;;;;5001407;28;20480;-90
2023/04/25 22:10:26;;;;;;;18.40;11.02;;;5.60;99.90;;;;;;5002778;28;20038;-89
2023/04/25 22:13:18;;;;;;;16.83;10.60;;;5.60;99.90;;;;;;5014628;28;20492;-90
2023/04/25 22:16:10;;;;;;;15.02;10.35;;;5.60;99.90;;;;;;5004329;28;20089;-90
2023/04/25 22:19:11;;;;;;;17.77;11.55;;;5.60;99.90;;;;;;5010039;28;20054;-90
2023/04/25 22:22:04;;;;;;;17.00;11.25;;;5.60;99.90;;;;;;5004564;28;20080;-88
2023/04/25 22:24:53;;;;;;;16.50;11.05;;;5.60;99.90;;;;;;5028237;28;20055;-91
2023/04/25 22:27:43;;;;;;;18.73;11.40;;;5.60;99.90;;;;;;5039436;28;20467;-89
2023/04/25 22:30:39;;;;;;;19.50;10.30;;;5.60;99.90;;;;;;5050161;28;20079;-90
2023/04/25 22:33:26;;;;;;;15.65;9.38;;;5.50;99.90;;;;;;5047919;28;20494;-89
2023/04/25 22:36:14;;;;;;;15.00;10.52;;;5.50;99.90;;;;;;5041009;28;20044;-92
2023/04/25 22:39:01;;;;;;;14.52;10.50;;;5.60;99.90;;;;;;5035987;28;20462;-89
2023/04/25 22:41:48;;;;;;;17.60;10.55;;;5.60;99.90;;;;;;5031308;28;20042;-90
2023/04/25 22:44:36;;;;;;;18.98;11.93;;;5.60;99.90;;;;;;5058173;28;20391;-90
2023/04/25 22:47:27;;;;;;;19.58;12.20;;;5.60;99.90;;;;;;5045926;28;20055;-91
2023/04/25 22:50:15;;;;;;;20.42;11.57;;;5.70;99.90;;;;;;5039240;28;20107;-90
2023/04/25 22:53:04;;;;;;;18.15;11.55;;;5.70;99.90;;;;;;5049157;28;20143;-90
2023/04/25 22:55:58;;;;;;;16.55;11.88;;;5.60;99.90;;;;;;5036763;28;20052;-90
2023/04/25 22:58:45;;;;;;;14.55;11.07;;;5.60;99.90;;;;;;5046098;28;20061;-90
2023/04/25 23:01:32;;;;;;;17.67;11.05;;;5.60;99.90;;;;;;5042607;28;20384;-91
2023/04/25 23:04:23;;;;;;;15.82;12.00;;;5.60;99.90;;;;;;5044154;28;20110;-90
2023/04/25 23:07:12;;;;;;;19.10;11.80;;;5.60;99.90;;;;;;5034844;28;20164;-91
2023/04/25 23:09:59;;;;;;;18.98;12.40;;;5.70;99.90;;;;;;5035956;28;20041;-93
2023/04/25 23:12:54;;;;;;;17.23;11.20;;;5.70;99.90;;;;;;5049246;28;20044;-91
2023/04/25 23:15:47;;;;;;;17.52;11.73;;;5.60;99.90;;;;;;5043065;28;20092;-91
2023/04/25 23:18:36;;;;;;;18.63;11.77;;;5.60;99.90;;;;;;5043022;28;20399;-92
2023/04/25 23:21:25;;;;;;;15.00;11.13;;;5.70;99.90;;;;;;5057761;28;20041;-92
2023/04/25 23:24:12;;;;;;;18.55;11.60;;;5.60;99.90;;;;;;5035026;28;20489;-92
2023/04/25 23:27:00;;;;;;;22.05;12.23;;;5.60;99.90;;;;;;5029661;28;20041;-89
2023/04/25 23:29:55;;;;;;;19.50;12.25;;;5.50;99.90;;;;;;5056424;28;20447;-91
2023/04/25 23:32:43;;;;;;;23.02;12.43;;;5.50;99.90;;;;;;5053472;28;20051;-91
2023/04/25 23:35:33;;;;;;;20.70;12.05;;;5.40;99.90;;;;;;5038983;28;20112;-91
2023/04/25 23:38:21;;;;;;;18.63;12.57;;;5.40;99.90;;;;;;5048105;28;20110;-90
2023/04/25 23:41:10;;;;;;;22.98;13.65;;;5.40;99.90;;;;;;5045828;28;20060;-91
2023/04/25 23:43:58;;;;;;;21.25;12.70;;;5.40;99.90;;;;;;5060578;28;20061;-90
2023/04/25 23:46:45;;;;;;;21.50;12.82;;;5.40;99.90;;;;;;5037421;28;20483;-90
2023/04/25 23:49:32;;;;;;;22.48;13.10;;;5.30;99.90;;;;;;5032406;28;20041;-90
2023/04/25 23:52:20;;;;;;;19.42;13.52;;;5.30;99.90;;;;;;5046075;28;20037;-89
2023/04/25 23:55:09;;;;;;;20.63;12.90;;;5.30;99.90;;;;;;5039092;28;20102;-90
2023/04/25 23:57:57;;;;;;;21.67;11.75;;;5.30;99.90;;;;;;5025876;28;20245;-91
